Hlavní strana
METAR-TAF:

METAR-TAF

Letiště :

Stockholm, Švédsko

zeměpisná šířka: 59-21N, zeměpisná délka: 017-57E, výška: 14 m

Aktuální stav počasí

Zpráva byla vytvořena před 29 minutami, v 08:20 UTC
Jihojihozápadní vítr 6 kt, proměnlivý mezi jihojihovýchodním a západojihozápadním
Teplota 7°C
Vlhkost vzduchu 93%
Tlak 1026 hPa
Viditelnost 10 km a více
Oblačno až skoro zataženo ve výšce 700 ft

METAR: ESSB 150820Z 20006KT 160V240 9999 BKN007 07/06 Q1026 R30/19//95

Čas: 09:49 (08:49 UTC)

Předpověď počasí

Zpráva byla vytvořena před 19 minutami, v 08:30 UTC
Předpověď platná od 15 v 09 UTC do 15 v 18 UTC
Jihojihozápadní vítr 6 kt
Viditelnost 10 km a více
Oblačno až skoro zataženo ve výšce 600 ft
Změna
od 15 v 09 UTC do 15 v 10 UTC
Polojasno ve výšce 2000 ft

TAF: ESSB 150830Z 1509/1518 21006KT 9999 BKN006 BECMG 1509/1510 SCT020

Stav a předpovědi počasí z více než 4 000 letišť (zprávy METAR a TAF).

Červené a žluté tečky na mapě představují dostupné meteorologické stanice.

Když kurzor umístíte na tečku, zobrazí se název stanice.

Pak kliknutím zobrazíte stav a předpověď počasí.

Chcete-li změnit mapu, kliknutím na zelené tlačítko se znaménkem +mapu přiblížíte, kliknutím na zelené tlačítko se znaménkem – mapu oddálíte a kliknutím na zelené šipky přejdete na sousední mapy.


METAR-TAF: